Time;durP1;ratioP1;P1;durP2;ratioP2;P2;SDS_P1;SDS_P2;PMS_P1;PMS_P2;Temp;Humidity;BMP_temperature;BMP_pressure;BME280_temperature;BME280_humidity;BME280_pressure;Samples;Min_cycle;Max_cycle;Signal;HPM_P1;HPM_P2
2021/01/20 00:01:36;;;;;;;2.30;1.87;;;1.80;99.90;;;;;;5062258;28;20598;-91
2021/01/20 00:04:03;;;;;;;2.53;2.33;;;1.70;99.90;;;;;;5064359;28;20950;-90
2021/01/20 00:06:30;;;;;;;2.20;2.00;;;1.60;99.90;;;;;;5064502;28;20624;-91
2021/01/20 00:08:56;;;;;;;1.93;1.77;;;1.60;99.90;;;;;;5059827;28;20629;-90
2021/01/20 00:11:25;;;;;;;2.37;2.17;;;1.60;99.90;;;;;;5061270;28;20647;-90
2021/01/20 00:13:52;;;;;;;2.57;2.37;;;1.60;99.90;;;;;;5071194;28;20661;-90
2021/01/20 00:16:18;;;;;;;2.57;2.37;;;1.60;99.90;;;;;;5063587;28;21238;-90
2021/01/20 00:18:44;;;;;;;2.13;1.93;;;1.70;99.90;;;;;;5065012;28;21038;-90
2021/01/20 00:21:11;;;;;;;2.27;2.07;;;1.70;99.90;;;;;;5061757;28;20688;-89
2021/01/20 00:23:38;;;;;;;2.63;2.40;;;1.70;99.90;;;;;;5064305;28;20634;-90
2021/01/20 00:26:04;;;;;;;2.00;1.80;;;1.90;99.90;;;;;;5062329;28;20630;-90
2021/01/20 00:28:31;;;;;;;2.73;2.30;;;1.90;99.90;;;;;;5062653;28;20613;-90
2021/01/20 00:30:57;;;;;;;2.10;1.90;;;2.20;99.90;;;;;;5060172;28;20655;-90
2021/01/20 00:33:23;;;;;;;2.10;1.90;;;2.40;99.90;;;;;;5060288;28;20628;-90
2021/01/20 00:35:50;;;;;;;2.70;1.83;;;2.40;99.90;;;;;;5063663;28;21167;-89
2021/01/20 00:38:17;;;;;;;1.83;1.57;;;2.70;99.90;;;;;;5062348;28;20626;-90
2021/01/20 00:40:44;;;;;;;1.80;1.70;;;2.90;99.90;;;;;;5062579;28;20657;-89
2021/01/20 00:43:11;;;;;;;1.77;1.60;;;3.00;99.90;;;;;;5062822;28;20972;-90
2021/01/20 00:45:37;;;;;;;1.87;1.63;;;3.00;99.90;;;;;;5064339;28;21193;-92
2021/01/20 00:48:08;;;;;;;5.93;2.27;;;2.90;99.90;;;;;;5068015;28;20636;-90
2021/01/20 00:50:34;;;;;;;2.30;2.00;;;3.00;99.90;;;;;;5069139;28;21002;-90
2021/01/20 00:53:01;;;;;;;1.57;1.47;;;2.90;99.90;;;;;;5065247;28;20694;-90
2021/01/20 00:55:27;;;;;;;4.23;1.90;;;2.90;99.90;;;;;;5065818;28;20678;-92
2021/01/20 00:57:54;;;;;;;2.07;1.43;;;3.00;99.90;;;;;;5052546;28;20646;-92
2021/01/20 01:00:22;;;;;;;1.67;1.50;;;2.80;99.90;;;;;;5064728;28;20648;-91
2021/01/20 01:02:49;;;;;;;1.50;1.40;;;3.00;99.90;;;;;;5050943;28;20688;-93
2021/01/20 01:05:16;;;;;;;3.03;2.20;;;3.00;99.90;;;;;;5068286;28;20646;-92
2021/01/20 01:07:43;;;;;;;3.43;2.70;;;2.90;99.90;;;;;;5068989;28;20629;-92
2021/01/20 01:10:10;;;;;;;1.83;1.70;;;2.70;99.90;;;;;;5067746;28;20665;-92
2021/01/20 01:12:37;;;;;;;2.30;2.10;;;2.70;99.90;;;;;;5068385;28;20636;-89
2021/01/20 01:15:06;;;;;;;2.40;2.20;;;2.70;99.90;;;;;;5064369;28;20763;-90
2021/01/20 01:17:32;;;;;;;1.83;1.73;;;2.70;99.90;;;;;;5063377;28;20619;-90
2021/01/20 01:19:59;;;;;;;3.00;2.70;;;2.70;99.90;;;;;;5067938;28;20667;-90
2021/01/20 01:22:25;;;;;;;2.53;1.93;;;2.70;99.90;;;;;;5067826;28;20633;-89
2021/01/20 01:24:52;;;;;;;2.53;2.30;;;2.40;99.90;;;;;;5069971;28;20651;-90
2021/01/20 01:27:20;;;;;;;3.10;2.53;;;2.50;99.90;;;;;;5066282;28;20974;-90
2021/01/20 01:29:47;;;;;;;2.57;2.00;;;2.40;99.90;;;;;;5065637;28;20769;-89
2021/01/20 01:32:14;;;;;;;4.80;2.37;;;2.40;99.90;;;;;;5065760;28;20635;-90
2021/01/20 01:34:40;;;;;;;4.13;2.50;;;2.60;99.90;;;;;;5067728;28;20714;-90
2021/01/20 01:37:07;;;;;;;3.37;3.00;;;2.60;99.90;;;;;;5065517;28;21181;-90
2021/01/20 01:39:34;;;;;;;3.87;3.30;;;2.50;99.90;;;;;;5068077;28;21062;-90
2021/01/20 01:42:05;;;;;;;3.40;3.10;;;2.30;99.90;;;;;;5064037;28;20633;-90
2021/01/20 01:44:31;;;;;;;3.27;2.97;;;2.20;99.90;;;;;;5067697;28;20636;-89
2021/01/20 01:46:58;;;;;;;2.97;2.67;;;2.20;99.90;;;;;;5062290;28;20618;-90
2021/01/20 01:49:25;;;;;;;3.47;2.70;;;2.30;99.90;;;;;;5064466;28;20637;-90
2021/01/20 01:51:53;;;;;;;3.63;3.33;;;2.30;99.90;;;;;;5066167;28;20633;-91
2021/01/20 01:54:20;;;;;;;4.27;3.87;;;2.20;99.90;;;;;;5069863;28;20661;-91
2021/01/20 01:56:47;;;;;;;4.47;4.07;;;2.20;99.90;;;;;;5067282;28;20621;-91
2021/01/20 01:59:14;;;;;;;3.53;2.93;;;2.10;99.90;;;;;;5045113;28;21355;-91
2021/01/20 02:01:40;;;;;;;3.80;2.87;;;2.00;99.90;;;;;;5065765;28;20658;-91
2021/01/20 02:04:07;;;;;;;2.83;2.63;;;1.90;99.90;;;;;;5066737;28;21164;-91
2021/01/20 02:06:36;;;;;;;2.93;2.50;;;2.00;99.90;;;;;;5066418;28;20645;-92
2021/01/20 02:09:04;;;;;;;2.83;2.63;;;2.00;99.90;;;;;;5065847;28;20636;-92
2021/01/20 02:11:41;;;;;;;2.80;2.27;;;2.00;99.90;;;;;;5059867;28;20642;-92
2021/01/20 02:14:18;;;;;;;2.57;2.37;;;2.00;99.90;;;;;;5066871;28;20667;-92
2021/01/20 02:17:01;;;;;;;2.50;2.17;;;2.00;99.90;;;;;;5063115;28;20607;-91
2021/01/20 02:19:50;;;;;;;2.53;2.00;;;1.90;99.90;;;;;;5064305;28;20624;-89
2021/01/20 02:22:26;;;;;;;2.33;2.13;;;1.90;99.90;;;;;;5065246;28;20636;-90
2021/01/20 02:25:02;;;;;;;2.37;2.17;;;1.90;99.90;;;;;;5061775;28;20627;-89
2021/01/20 02:27:33;;;;;;;2.77;2.30;;;1.80;99.90;;;;;;5063464;28;21155;-89
2021/01/20 02:30:07;;;;;;;2.70;2.17;;;1.80;99.90;;;;;;5065997;28;20660;-89
2021/01/20 02:32:36;;;;;;;2.27;2.07;;;1.90;99.90;;;;;;5091819;28;20627;-90
2021/01/20 02:35:04;;;;;;;2.27;2.07;;;1.80;99.90;;;;;;5082265;28;21262;-91
2021/01/20 02:37:33;;;;;;;2.67;2.33;;;2.20;99.90;;;;;;5068890;28;20644;-90
2021/01/20 02:40:00;;;;;;;2.30;2.10;;;2.40;99.90;;;;;;5068938;28;20662;-90
2021/01/20 02:42:26;;;;;;;3.07;2.20;;;2.40;99.90;;;;;;5049518;28;21069;-91
2021/01/20 02:44:53;;;;;;;4.30;2.20;;;2.30;99.90;;;;;;5066916;28;20637;-91
2021/01/20 02:47:20;;;;;;;2.90;2.23;;;2.30;99.90;;;;;;5064728;28;21022;-91
2021/01/20 02:49:47;;;;;;;2.27;2.07;;;2.40;99.90;;;;;;5068697;28;21222;-91
2021/01/20 02:52:25;;;;;;;3.30;2.17;;;2.30;99.90;;;;;;5067292;28;20633;-91
2021/01/20 02:54:55;;;;;;;3.83;2.77;;;2.20;99.90;;;;;;5064305;28;21008;-90
2021/01/20 02:57:22;;;;;;;2.80;2.50;;;2.40;99.90;;;;;;5068753;28;20635;-90
2021/01/20 02:59:51;;;;;;;2.70;2.50;;;2.40;99.90;;;;;;5045021;28;20683;-90
2021/01/20 03:02:21;;;;;;;3.33;3.00;;;2.50;99.90;;;;;;5066208;28;21312;-91
2021/01/20 03:04:50;;;;;;;2.90;2.70;;;2.40;99.90;;;;;;5068711;28;20628;-90
2021/01/20 03:07:19;;;;;;;3.70;2.43;;;2.30;99.90;;;;;;5066110;28;20628;-90
2021/01/20 03:09:46;;;;;;;3.30;2.60;;;2.40;99.90;;;;;;5066222;28;20722;-89
2021/01/20 03:12:12;;;;;;;4.27;2.47;;;2.40;99.90;;;;;;5067801;28;21151;-90
2021/01/20 03:14:43;;;;;;;2.23;2.03;;;2.40;99.90;;;;;;5065765;28;20660;-90
2021/01/20 03:17:10;;;;;;;3.30;2.37;;;2.30;99.90;;;;;;5068098;28;20629;-90
2021/01/20 03:19:37;;;;;;;2.90;2.23;;;2.20;99.90;;;;;;5048141;28;21107;-91
2021/01/20 03:22:03;;;;;;;4.07;2.57;;;2.30;99.90;;;;;;5065877;28;21210;-90
2021/01/20 03:24:29;;;;;;;2.77;2.53;;;2.40;99.90;;;;;;5063506;28;20645;-90
2021/01/20 03:26:56;;;;;;;2.90;2.60;;;2.40;99.90;;;;;;5066944;28;20617;-89
2021/01/20 03:29:22;;;;;;;4.30;3.17;;;2.30;99.90;;;;;;5066657;28;20625;-90
2021/01/20 03:31:48;;;;;;;3.33;3.00;;;2.30;99.90;;;;;;5072089;28;20636;-88
2021/01/20 03:34:14;;;;;;;2.90;2.70;;;2.20;99.90;;;;;;5070118;28;20749;-89
2021/01/20 03:36:43;;;;;;;3.10;2.70;;;2.10;99.90;;;;;;5067609;28;20631;-89
2021/01/20 03:39:11;;;;;;;3.77;3.20;;;2.20;99.90;;;;;;5066730;28;20583;-90
2021/01/20 03:41:37;;;;;;;3.23;2.30;;;2.10;99.90;;;;;;5066902;28;20634;-90
2021/01/20 03:44:05;;;;;;;2.97;2.40;;;2.20;99.90;;;;;;5065867;28;20636;-90
2021/01/20 03:46:31;;;;;;;3.03;2.73;;;2.20;99.90;;;;;;5063935;28;20627;-90
2021/01/20 03:48:57;;;;;;;3.53;2.70;;;2.10;99.90;;;;;;5067271;28;20643;-90
2021/01/20 03:51:28;;;;;;;2.80;2.10;;;1.90;99.90;;;;;;5064393;28;20993;-90
2021/01/20 03:53:56;;;;;;;2.43;2.23;;;1.90;99.90;;;;;;5066789;28;20763;-90
2021/01/20 03:56:22;;;;;;;2.70;2.50;;;1.90;99.90;;;;;;5046813;28;20698;-90
2021/01/20 03:58:48;;;;;;;3.10;1.97;;;1.70;99.90;;;;;;5046890;28;20691;-91
2021/01/20 04:01:15;;;;;;;3.60;3.30;;;1.60;99.90;;;;;;5066081;28;20653;-91
2021/01/20 04:03:42;;;;;;;2.20;2.00;;;1.50;99.90;;;;;;5065732;28;20629;-90
2021/01/20 04:06:08;;;;;;;4.13;3.33;;;1.50;99.90;;;;;;5066680;28;20645;-90
2021/01/20 04:08:35;;;;;;;3.43;2.07;;;1.50;99.90;;;;;;5049441;28;20633;-90
2021/01/20 04:11:02;;;;;;;3.07;2.47;;;1.50;99.90;;;;;;5066647;28;20653;-88
2021/01/20 04:13:28;;;;;;;3.03;2.20;;;1.50;99.90;;;;;;5066269;28;21226;-89
2021/01/20 04:15:55;;;;;;;2.40;2.20;;;1.40;99.90;;;;;;5064320;28;21147;-89
2021/01/20 04:18:21;;;;;;;3.20;2.87;;;1.50;99.90;;;;;;5065902;28;20635;-89
2021/01/20 04:20:47;;;;;;;3.07;2.87;;;1.50;99.90;;;;;;5074152;28;20648;-89
2021/01/20 04:23:14;;;;;;;2.90;2.70;;;1.50;99.90;;;;;;5064199;28;20618;-88
2021/01/20 04:25:40;;;;;;;2.73;2.53;;;1.50;99.90;;;;;;5068126;28;20632;-90
2021/01/20 04:28:09;;;;;;;2.43;2.23;;;1.40;99.90;;;;;;5067073;28;20931;-89
2021/01/20 04:30:36;;;;;;;2.80;2.50;;;1.40;99.90;;;;;;5064621;28;20738;-89
2021/01/20 04:33:02;;;;;;;5.17;2.33;;;1.40;99.90;;;;;;5066327;28;20619;-88
2021/01/20 04:35:29;;;;;;;5.43;2.77;;;1.50;99.90;;;;;;5031852;28;20622;-88
2021/01/20 04:37:55;;;;;;;3.00;2.70;;;1.50;99.90;;;;;;5062503;28;20615;-88
2021/01/20 04:40:32;;;;;;;3.23;2.93;;;1.40;99.90;;;;;;5064951;28;20655;-89
2021/01/20 04:43:11;;;;;;;2.60;2.30;;;1.40;99.90;;;;;;5063440;28;20697;-88
2021/01/20 04:45:38;;;;;;;1.87;1.77;;;1.30;99.90;;;;;;5061955;28;20802;-89
2021/01/20 04:48:07;;;;;;;2.03;1.83;;;1.30;99.90;;;;;;5069745;28;20892;-90
2021/01/20 04:50:35;;;;;;;2.57;1.80;;;1.30;99.90;;;;;;5080208;28;20653;-90
2021/01/20 04:53:07;;;;;;;2.43;2.23;;;1.30;99.90;;;;;;5081776;28;21043;-89
2021/01/20 04:55:34;;;;;;;2.70;2.03;;;1.40;99.90;;;;;;5080336;28;20617;-89
2021/01/20 04:58:02;;;;;;;2.50;2.10;;;1.30;99.90;;;;;;5079787;28;20623;-89
2021/01/20 05:00:30;;;;;;;2.37;2.17;;;1.30;99.90;;;;;;5081313;28;20655;-89
2021/01/20 05:02:58;;;;;;;2.57;2.10;;;1.30;99.90;;;;;;5079778;28;20633;-88
2021/01/20 05:05:26;;;;;;;2.27;2.00;;;1.40;99.90;;;;;;5079897;28;20629;-89
2021/01/20 05:07:52;;;;;;;2.20;1.90;;;1.40;99.90;;;;;;5082649;28;20716;-89
2021/01/20 05:10:19;;;;;;;2.13;1.93;;;1.50;99.90;;;;;;5063784;28;20702;-89
2021/01/20 05:12:45;;;;;;;2.57;2.13;;;1.50;99.90;;;;;;5078599;28;20641;-90
2021/01/20 05:15:15;;;;;;;2.87;2.30;;;1.40;99.90;;;;;;5083987;28;20649;-88
2021/01/20 05:17:56;;;;;;;2.90;2.27;;;1.40;99.90;;;;;;5078754;28;20608;-90
2021/01/20 05:20:29;;;;;;;1.77;1.67;;;1.50;99.90;;;;;;5072076;28;20660;-90
2021/01/20 05:22:58;;;;;;;2.00;1.33;;;1.50;99.90;;;;;;5080642;28;20613;-91
2021/01/20 05:25:29;;;;;;;1.80;1.70;;;1.50;99.90;;;;;;5087020;28;20630;-90
2021/01/20 05:27:55;;;;;;;1.60;1.50;;;1.50;99.90;;;;;;5084619;28;20629;-90
2021/01/20 05:30:22;;;;;;;2.47;2.00;;;1.60;99.90;;;;;;5086854;28;20672;-89
2021/01/20 05:32:57;;;;;;;3.30;2.70;;;1.60;99.90;;;;;;5083691;28;20620;-89
2021/01/20 05:35:24;;;;;;;2.07;1.87;;;1.70;99.90;;;;;;5071647;28;20663;-89
2021/01/20 05:37:51;;;;;;;1.93;1.70;;;1.70;99.90;;;;;;5069333;28;20623;-89
2021/01/20 05:40:19;;;;;;;2.93;2.00;;;1.70;99.90;;;;;;5070602;28;20678;-89
2021/01/20 05:42:49;;;;;;;2.13;1.93;;;1.70;99.90;;;;;;5066185;28;20638;-90
2021/01/20 05:45:19;;;;;;;2.40;2.10;;;1.80;99.90;;;;;;5068804;28;20589;-90
2021/01/20 05:48:07;;;;;;;2.20;2.00;;;1.80;99.90;;;;;;5069453;28;20680;-90
2021/01/20 05:50:36;;;;;;;2.50;2.20;;;1.90;99.90;;;;;;5069984;28;20667;-89
2021/01/20 05:53:05;;;;;;;2.57;2.37;;;1.90;99.90;;;;;;5074601;28;20659;-90
2021/01/20 05:55:32;;;;;;;2.70;2.33;;;1.90;99.90;;;;;;5090000;28;20641;-91
2021/01/20 05:57:58;;;;;;;2.60;2.40;;;2.10;99.90;;;;;;5084172;28;21017;-91
2021/01/20 06:00:26;;;;;;;2.80;2.60;;;2.00;99.90;;;;;;5064153;28;20653;-90
2021/01/20 06:02:55;;;;;;;2.63;2.43;;;2.00;99.90;;;;;;5069615;28;20637;-89
2021/01/20 06:05:22;;;;;;;2.83;2.63;;;2.10;99.90;;;;;;5069337;28;20612;-90
2021/01/20 06:07:52;;;;;;;3.13;2.30;;;2.10;99.90;;;;;;5069543;28;20655;-91
2021/01/20 06:10:20;;;;;;;2.57;2.33;;;2.00;99.90;;;;;;5068240;28;20736;-88
2021/01/20 06:12:48;;;;;;;2.43;2.23;;;2.00;99.90;;;;;;5068936;28;20633;-89
2021/01/20 06:15:15;;;;;;;2.97;2.77;;;2.40;99.90;;;;;;5067197;28;20795;-89
2021/01/20 06:17:43;;;;;;;4.63;3.77;;;2.10;99.90;;;;;;5068426;28;21222;-89
2021/01/20 06:20:11;;;;;;;3.50;3.20;;;2.20;99.90;;;;;;5068641;28;20655;-88
2021/01/20 06:22:46;;;;;;;3.40;3.10;;;2.20;99.90;;;;;;5065015;28;20634;-89
2021/01/20 06:25:19;;;;;;;3.23;2.93;;;2.30;99.90;;;;;;5068404;28;20644;-87
2021/01/20 06:27:51;;;;;;;4.27;3.97;;;2.40;99.90;;;;;;5064468;28;20653;-88
2021/01/20 06:30:23;;;;;;;3.43;3.13;;;2.30;99.90;;;;;;5067895;28;20668;-88
2021/01/20 06:32:51;;;;;;;3.20;2.90;;;2.40;99.90;;;;;;5065932;28;20633;-88
2021/01/20 06:35:18;;;;;;;3.60;3.30;;;2.40;99.90;;;;;;5066407;28;20659;-90
2021/01/20 06:37:47;;;;;;;3.70;3.40;;;2.40;99.90;;;;;;5072028;28;20636;-90
2021/01/20 06:40:41;;;;;;;4.07;3.70;;;2.40;99.90;;;;;;5073178;28;20653;-89
2021/01/20 06:43:44;;;;;;;3.53;3.23;;;2.40;99.90;;;;;;5067856;28;20644;-88
2021/01/20 06:46:16;;;;;;;5.67;3.63;;;2.50;99.90;;;;;;5065465;28;20617;-91
2021/01/20 06:49:11;;;;;;;4.40;4.00;;;2.50;99.90;;;;;;5070371;28;20612;-91
2021/01/20 06:51:38;;;;;;;3.93;3.53;;;2.50;99.90;;;;;;5065783;28;20645;-90
2021/01/20 06:54:11;;;;;;;4.00;3.60;;;2.50;99.90;;;;;;5067133;28;20659;-89
2021/01/20 06:56:39;;;;;;;4.93;4.20;;;2.40;99.90;;;;;;5065746;28;21182;-89
2021/01/20 06:59:25;;;;;;;6.77;6.23;;;2.50;99.90;;;;;;5062099;28;20601;-88
2021/01/20 07:02:11;;;;;;;8.20;7.50;;;2.50;99.90;;;;;;5064290;28;20581;-89
2021/01/20 07:05:06;;;;;;;8.30;6.20;;;2.60;99.90;;;;;;5062440;28;20638;-89
2021/01/20 07:08:04;;;;;;;16.03;14.33;;;2.50;99.90;;;;;;5063793;28;20655;-89
2021/01/20 07:10:47;;;;;;;14.27;12.87;;;2.50;99.90;;;;;;5065476;28;20649;-89
2021/01/20 07:13:18;;;;;;;11.70;10.60;;;2.50;99.90;;;;;;5060494;28;20648;-89
2021/01/20 07:15:50;;;;;;;11.57;10.47;;;2.50;99.90;;;;;;5064001;28;20629;-89
2021/01/20 07:18:17;;;;;;;12.20;11.10;;;2.50;99.90;;;;;;5066007;28;20621;-87
2021/01/20 07:20:46;;;;;;;17.73;15.40;;;2.40;99.90;;;;;;5073258;28;20660;-90
2021/01/20 07:23:12;;;;;;;17.30;15.37;;;2.50;99.90;;;;;;5062574;28;20683;-89
2021/01/20 07:25:40;;;;;;;18.57;16.60;;;2.40;99.90;;;;;;5065738;28;20706;-89
2021/01/20 07:28:07;;;;;;;20.03;17.93;;;2.50;99.90;;;;;;5068430;28;20643;-88
2021/01/20 07:30:34;;;;;;;20.27;18.20;;;2.50;99.90;;;;;;5061829;28;20660;-89
2021/01/20 07:33:01;;;;;;;20.40;17.70;;;2.60;99.90;;;;;;5060750;28;20641;-90
2021/01/20 07:35:29;;;;;;;16.60;14.90;;;2.60;99.90;;;;;;5076429;28;20653;-87
2021/01/20 07:38:00;;;;;;;18.67;16.87;;;2.60;99.90;;;;;;5062049;28;20712;-87
2021/01/20 07:40:29;;;;;;;18.90;16.93;;;2.60;99.90;;;;;;5065805;28;20668;-89
2021/01/20 07:42:56;;;;;;;19.37;15.73;;;2.60;99.90;;;;;;5065981;28;20641;-90
2021/01/20 07:45:41;;;;;;;16.30;13.73;;;2.70;99.90;;;;;;5068646;28;20700;-89
2021/01/20 07:48:09;;;;;;;21.87;19.77;;;2.70;99.90;;;;;;5082027;28;20700;-89
2021/01/20 07:50:44;;;;;;;17.63;15.90;;;2.70;99.90;;;;;;5085018;28;20668;-89
2021/01/20 07:53:19;;;;;;;17.70;16.10;;;2.70;99.90;;;;;;5074417;28;20632;-89
2021/01/20 07:55:49;;;;;;;16.07;14.50;;;2.70;99.90;;;;;;5055767;28;20605;-89
2021/01/20 07:58:17;;;;;;;16.43;13.93;;;2.80;99.90;;;;;;5066994;28;20954;-89
2021/01/20 08:00:45;;;;;;;15.43;13.97;;;2.80;99.90;;;;;;5065095;28;20667;-89
2021/01/20 08:03:12;;;;;;;16.20;12.70;;;2.90;99.90;;;;;;5066636;28;20643;-89
2021/01/20 08:05:41;;;;;;;13.03;11.73;;;2.90;99.90;;;;;;5067134;28;20625;-89
2021/01/20 08:08:14;;;;;;;12.87;11.47;;;3.00;99.90;;;;;;5066637;28;20637;-88
2021/01/20 08:10:42;;;;;;;20.47;10.77;;;2.90;99.90;;;;;;5067650;28;20668;-89
2021/01/20 08:13:12;;;;;;;16.17;11.50;;;3.50;99.90;;;;;;5064308;28;22155;-90
2021/01/20 08:15:41;;;;;;;17.70;11.10;;;3.20;99.90;;;;;;5065612;28;21196;-91
2021/01/20 08:18:10;;;;;;;12.93;10.40;;;3.20;99.90;;;;;;5066083;28;21221;-91
2021/01/20 08:20:37;;;;;;;10.37;9.37;;;3.10;99.90;;;;;;5063081;28;20710;-90
2021/01/20 08:23:05;;;;;;;9.53;8.63;;;3.30;99.90;;;;;;5066779;28;20628;-90
2021/01/20 08:25:33;;;;;;;9.73;8.87;;;3.30;99.90;;;;;;5074532;28;20641;-91
2021/01/20 08:28:14;;;;;;;17.90;9.90;;;3.40;99.90;;;;;;5073410;28;21119;-90
2021/01/20 08:31:10;;;;;;;12.33;10.83;;;3.40;99.90;;;;;;5073349;28;20661;-89
2021/01/20 08:36:28;;;;;;;9.60;8.60;;;3.60;99.90;;;;;;5071088;28;20687;-90
2021/01/20 08:39:12;;;;;;;10.57;9.10;;;3.60;99.90;;;;;;5073454;28;20629;-89
2021/01/20 08:41:38;;;;;;;12.77;8.43;;;3.70;99.90;;;;;;5068838;28;20639;-90
2021/01/20 08:44:15;;;;;;;14.57;8.30;;;3.90;99.90;;;;;;5047933;28;20776;-90
2021/01/20 08:46:41;;;;;;;10.50;7.40;;;3.90;99.90;;;;;;5065658;28;20636;-89
2021/01/20 08:49:19;;;;;;;7.40;6.70;;;3.90;99.90;;;;;;5062748;28;20648;-89
2021/01/20 08:51:55;;;;;;;9.20;7.17;;;3.90;99.90;;;;;;5057506;28;21216;-90
2021/01/20 08:54:23;;;;;;;12.70;9.00;;;4.00;99.90;;;;;;5063720;28;20664;-90
2021/01/20 08:56:49;;;;;;;15.10;7.27;;;4.10;99.90;;;;;;5064434;28;20629;-90
2021/01/20 08:59:16;;;;;;;10.20;6.90;;;4.20;99.90;;;;;;5065642;28;20651;-90
2021/01/20 09:01:42;;;;;;;9.77;7.83;;;4.30;99.90;;;;;;5064197;28;20658;-89
2021/01/20 09:04:28;;;;;;;12.80;9.50;;;4.50;99.90;;;;;;5086430;28;20627;-89
2021/01/20 09:06:58;;;;;;;11.77;9.37;;;4.80;99.90;;;;;;5085959;28;20727;-90
2021/01/20 09:09:24;;;;;;;14.70;10.43;;;4.50;99.90;;;;;;5070354;28;20605;-89
2021/01/20 09:11:50;;;;;;;12.90;9.10;;;4.50;99.90;;;;;;5064797;28;20641;-90
2021/01/20 09:14:18;;;;;;;14.03;10.17;;;4.50;99.90;;;;;;5064842;28;20647;-90
2021/01/20 09:16:44;;;;;;;13.10;9.10;;;4.40;99.90;;;;;;5069071;28;20633;-90
2021/01/20 09:19:10;;;;;;;11.63;8.23;;;4.40;99.90;;;;;;5067063;28;20612;-89
2021/01/20 09:21:37;;;;;;;11.13;9.03;;;4.40;99.90;;;;;;5067907;28;20656;-90
2021/01/20 09:24:05;;;;;;;12.67;8.03;;;4.40;99.90;;;;;;5066779;28;20637;-89
2021/01/20 09:26:32;;;;;;;13.63;9.20;;;4.50;99.90;;;;;;5067689;28;20609;-90
2021/01/20 09:29:00;;;;;;;17.00;9.67;;;4.40;99.90;;;;;;5066578;28;20624;-89
2021/01/20 09:31:28;;;;;;;11.67;9.50;;;4.40;99.90;;;;;;5065546;28;20660;-89
2021/01/20 09:33:55;;;;;;;14.27;8.73;;;4.50;99.90;;;;;;5061701;28;20672;-90
2021/01/20 09:36:21;;;;;;;9.57;8.50;;;4.40;99.90;;;;;;5072788;28;20636;-90
2021/01/20 09:38:49;;;;;;;12.70;8.80;;;4.50;99.90;;;;;;5073671;28;20620;-90
2021/01/20 09:41:16;;;;;;;9.80;8.80;;;4.80;99.90;;;;;;5079790;28;20656;-90
2021/01/20 09:43:43;;;;;;;9.43;7.30;;;4.50;99.90;;;;;;5065840;28;21472;-89
2021/01/20 09:46:11;;;;;;;9.07;8.17;;;4.70;99.90;;;;;;5066898;28;20640;-90
2021/01/20 09:48:39;;;;;;;11.63;10.40;;;4.70;99.90;;;;;;5064031;28;20629;-89
2021/01/20 09:51:10;;;;;;;11.60;10.03;;;4.80;99.90;;;;;;5067819;28;21110;-90
2021/01/20 09:53:40;;;;;;;20.17;11.07;;;4.90;99.90;;;;;;5064961;28;20668;-90
2021/01/20 09:56:13;;;;;;;13.63;8.50;;;5.00;99.90;;;;;;5068728;28;20625;-89
2021/01/20 09:58:47;;;;;;;15.07;9.90;;;5.00;99.90;;;;;;5066807;28;21078;-90
2021/01/20 10:01:16;;;;;;;20.03;12.50;;;5.20;99.90;;;;;;5055096;28;20649;-90
2021/01/20 10:03:43;;;;;;;16.20;10.60;;;5.10;99.90;;;;;;5068989;28;20643;-90
2021/01/20 10:06:11;;;;;;;11.60;10.40;;;5.20;99.90;;;;;;5067049;28;20617;-89
2021/01/20 10:08:37;;;;;;;19.40;9.40;;;5.20;99.90;;;;;;5070025;28;20624;-89
2021/01/20 10:11:06;;;;;;;9.53;8.63;;;5.20;99.90;;;;;;5069959;28;20660;-88
2021/01/20 10:13:32;;;;;;;10.10;8.67;;;5.40;99.90;;;;;;5076513;28;20674;-90
2021/01/20 10:15:59;;;;;;;11.73;9.63;;;5.50;99.90;;;;;;5075902;28;20581;-90
2021/01/20 10:18:25;;;;;;;14.70;11.20;;;5.40;99.90;;;;;;5073908;28;20648;-89
2021/01/20 10:20:54;;;;;;;14.00;11.00;;;5.50;99.90;;;;;;5071938;28;20767;-90
2021/01/20 10:23:24;;;;;;;17.03;9.53;;;5.70;99.90;;;;;;5069833;28;20619;-90
2021/01/20 10:25:52;;;;;;;13.57;9.10;;;5.70;99.90;;;;;;5062308;28;20652;-89
2021/01/20 10:28:20;;;;;;;14.30;8.60;;;5.60;99.90;;;;;;5049625;28;20633;-89
2021/01/20 10:30:46;;;;;;;11.40;8.60;;;5.70;99.90;;;;;;5050179;28;20657;-89
2021/01/20 10:33:16;;;;;;;10.90;8.50;;;5.70;99.90;;;;;;5065026;28;20648;-91
2021/01/20 10:35:43;;;;;;;13.47;8.40;;;5.80;99.90;;;;;;5064070;28;20772;-89
2021/01/20 10:38:09;;;;;;;9.30;8.27;;;6.00;99.90;;;;;;5068038;28;20712;-90
2021/01/20 10:40:36;;;;;;;13.60;8.40;;;6.00;99.90;;;;;;5070740;28;20666;-90
2021/01/20 10:43:02;;;;;;;9.13;7.27;;;6.10;99.90;;;;;;5067633;28;20639;-89
2021/01/20 10:45:35;;;;;;;8.70;6.50;;;6.10;99.90;;;;;;5072616;28;20937;-90
2021/01/20 10:48:01;;;;;;;8.10;6.30;;;6.10;99.90;;;;;;5065191;28;20654;-90
2021/01/20 10:50:34;;;;;;;9.70;6.50;;;6.20;99.90;;;;;;5072988;28;21194;-89
2021/01/20 10:53:09;;;;;;;7.97;6.60;;;6.20;99.90;;;;;;5049968;28;20653;-90
2021/01/20 10:55:35;;;;;;;6.80;6.10;;;6.30;99.90;;;;;;5073552;28;20656;-90
2021/01/20 10:58:02;;;;;;;8.00;7.20;;;6.40;99.90;;;;;;5069696;28;21107;-89
2021/01/20 11:00:28;;;;;;;7.17;6.03;;;6.50;99.90;;;;;;5082660;28;20712;-89
2021/01/20 11:02:55;;;;;;;10.10;6.40;;;6.60;99.90;;;;;;5081197;28;20644;-89
2021/01/20 11:05:21;;;;;;;8.10;6.43;;;6.60;99.90;;;;;;5073487;28;20646;-88
2021/01/20 11:07:50;;;;;;;7.63;6.33;;;6.70;99.90;;;;;;5076619;28;20609;-89
2021/01/20 11:10:16;;;;;;;8.70;6.10;;;6.90;99.90;;;;;;5068425;28;20723;-89
2021/01/20 11:12:43;;;;;;;8.53;5.70;;;7.00;99.90;;;;;;5066162;28;20732;-90
2021/01/20 11:15:11;;;;;;;8.73;6.00;;;7.10;99.90;;;;;;5066338;28;20774;-89
2021/01/20 11:17:37;;;;;;;8.57;6.40;;;7.30;99.90;;;;;;5064686;28;20621;-91
2021/01/20 11:20:04;;;;;;;12.17;6.60;;;7.40;99.90;;;;;;5060470;28;21157;-88
2021/01/20 11:22:30;;;;;;;7.90;7.10;;;7.40;99.90;;;;;;5064161;28;20694;-90
2021/01/20 11:25:00;;;;;;;15.30;5.70;;;7.40;99.90;;;;;;5067715;28;20647;-89
2021/01/20 11:27:27;;;;;;;8.83;7.93;;;7.50;99.90;;;;;;5062843;28;20670;-89
2021/01/20 11:29:54;;;;;;;12.67;9.27;;;7.50;99.90;;;;;;5066773;28;20639;-89
2021/01/20 11:32:20;;;;;;;11.27;7.60;;;7.50;99.90;;;;;;5068862;28;20617;-90
2021/01/20 11:34:47;;;;;;;9.87;7.87;;;7.40;99.90;;;;;;5068432;28;20665;-91
2021/01/20 11:37:13;;;;;;;15.30;10.13;;;7.30;99.90;;;;;;5064780;28;20954;-90
2021/01/20 11:39:39;;;;;;;16.07;11.63;;;7.40;99.90;;;;;;5066522;28;21252;-91
2021/01/20 11:42:07;;;;;;;15.97;12.20;;;7.30;99.90;;;;;;5067942;28;20632;-89
2021/01/20 11:44:35;;;;;;;13.10;10.77;;;7.20;99.90;;;;;;5067590;28;20625;-90
2021/01/20 11:47:01;;;;;;;13.77;9.30;;;7.30;99.90;;;;;;5066664;28;20944;-89
2021/01/20 11:49:31;;;;;;;12.90;9.40;;;7.30;99.90;;;;;;5067587;28;20610;-91
2021/01/20 11:51:57;;;;;;;10.37;9.33;;;7.30;99.90;;;;;;5067256;28;21191;-91
2021/01/20 11:54:23;;;;;;;15.63;10.23;;;7.30;99.90;;;;;;5066061;28;20668;-91
2021/01/20 11:56:50;;;;;;;12.67;9.43;;;7.40;99.90;;;;;;5067844;28;20627;-91
2021/01/20 11:59:17;;;;;;;16.93;9.97;;;7.50;99.90;;;;;;5063365;28;20666;-91
2021/01/20 12:01:43;;;;;;;9.90;7.67;;;7.40;99.90;;;;;;5044680;28;21261;-91
2021/01/20 12:04:10;;;;;;;11.07;9.33;;;7.50;99.90;;;;;;5050790;28;20624;-90
2021/01/20 12:06:36;;;;;;;10.20;9.10;;;7.60;99.90;;;;;;5064845;28;20628;-89
2021/01/20 12:09:03;;;;;;;8.63;7.50;;;7.70;99.90;;;;;;5063823;28;20632;-90
2021/01/20 12:11:30;;;;;;;12.30;9.27;;;7.60;99.90;;;;;;5064956;28;20656;-90
2021/01/20 12:13:56;;;;;;;10.73;9.63;;;7.70;99.90;;;;;;5064725;28;20645;-92
2021/01/20 12:16:23;;;;;;;14.93;9.70;;;7.80;99.90;;;;;;5065315;28;21261;-91
2021/01/20 12:18:50;;;;;;;12.10;8.87;;;7.70;99.90;;;;;;5061562;28;20619;-89
2021/01/20 12:21:16;;;;;;;12.27;8.77;;;7.80;99.90;;;;;;5061288;28;20676;-90
2021/01/20 12:23:43;;;;;;;13.33;9.27;;;7.80;99.90;;;;;;5044558;28;20972;-90
2021/01/20 12:26:09;;;;;;;15.40;9.17;;;7.70;99.90;;;;;;5062267;28;20641;-90
2021/01/20 12:28:36;;;;;;;9.57;8.60;;;7.70;99.90;;;;;;5054317;28;21565;-90
2021/01/20 12:31:03;;;;;;;15.33;10.70;;;7.80;99.90;;;;;;5042463;28;21016;-90
2021/01/20 12:33:30;;;;;;;14.20;10.20;;;7.90;99.90;;;;;;5067462;28;20636;-90
2021/01/20 12:35:57;;;;;;;13.73;10.97;;;7.90;99.90;;;;;;5066190;28;20694;-91
2021/01/20 12:38:25;;;;;;;13.80;9.50;;;7.90;99.90;;;;;;5062330;28;20695;-91
2021/01/20 12:40:52;;;;;;;19.50;11.03;;;7.70;99.90;;;;;;5065725;28;20680;-91
2021/01/20 12:43:19;;;;;;;14.63;10.33;;;7.70;99.90;;;;;;5069188;28;20616;-91
2021/01/20 12:45:46;;;;;;;12.77;10.93;;;7.70;99.90;;;;;;5066020;28;20651;-91
2021/01/20 12:48:14;;;;;;;11.03;9.93;;;7.70;99.90;;;;;;5074224;28;20624;-91
2021/01/20 12:50:42;;;;;;;17.93;10.83;;;7.70;99.90;;;;;;5063945;28;20672;-91
2021/01/20 12:53:09;;;;;;;15.00;9.20;;;7.70;99.90;;;;;;5069155;28;20763;-91
2021/01/20 12:55:36;;;;;;;9.80;7.90;;;7.80;99.90;;;;;;5069384;28;20676;-91
2021/01/20 12:58:02;;;;;;;11.00;7.30;;;7.50;99.90;;;;;;5068839;28;20641;-91
2021/01/20 13:00:29;;;;;;;9.73;6.80;;;7.50;99.90;;;;;;5051217;28;20644;-91
2021/01/20 13:02:56;;;;;;;10.03;6.47;;;7.50;99.90;;;;;;5049701;28;20658;-91
2021/01/20 13:05:22;;;;;;;7.97;6.87;;;7.70;99.90;;;;;;5065875;28;20738;-91